Time;durP1;ratioP1;P1;durP2;ratioP2;P2;SDS_P1;SDS_P2;PMS_P1;PMS_P2;Temp;Humidity;BMP_temperature;BMP_pressure;BME280_temperature;BME280_humidity;BME280_pressure;Samples;Min_cycle;Max_cycle;Signal;HPM_P1;HPM_P2
2021/06/18 00:01:01;;;;;;;18.70;13.70;;;;;;;22.11;100.00;101274.56;5225647;28;20103;-65
2021/06/18 00:03:32;;;;;;;22.85;13.38;;;;;;;22.14;100.00;101268.63;5226591;28;20029;-65
2021/06/18 00:06:03;;;;;;;20.40;13.18;;;;;;;22.06;100.00;101260.75;5238935;28;20032;-64
2021/06/18 00:08:35;;;;;;;21.35;13.52;;;;;;;22.02;100.00;101249.44;5225738;28;20516;-65
2021/06/18 00:11:06;;;;;;;23.92;13.95;;;;;;;21.93;100.00;101253.56;5239586;28;20485;-65
2021/06/18 00:13:37;;;;;;;17.40;13.52;;;;;;;22.01;100.00;101257.88;5242027;28;20036;-65
2021/06/18 00:16:07;;;;;;;27.83;15.05;;;;;;;21.92;100.00;101258.19;5243584;28;20055;-65
2021/06/18 00:18:40;;;;;;;24.50;15.63;;;;;;;21.94;100.00;101258.81;5242224;28;20024;-65
2021/06/18 00:21:11;;;;;;;24.90;16.27;;;;;;;21.88;100.00;101264.34;5231980;28;20086;-65
2021/06/18 00:23:41;;;;;;;27.20;15.75;;;;;;;21.82;100.00;101273.47;5241307;28;20032;-65
2021/06/18 00:26:12;;;;;;;27.55;16.42;;;;;;;21.79;100.00;101272.03;5230184;28;20023;-66
2021/06/18 00:28:42;;;;;;;21.77;14.60;;;;;;;21.93;100.00;101257.13;5238690;28;20043;-66
2021/06/18 00:31:13;;;;;;;24.40;15.68;;;;;;;21.87;100.00;101263.50;5243487;28;20048;-65
2021/06/18 00:33:43;;;;;;;22.70;15.32;;;;;;;21.78;100.00;101256.69;5243866;28;20029;-66
2021/06/18 00:36:14;;;;;;;24.92;15.20;;;;;;;21.70;100.00;101257.88;5240833;28;20452;-66
2021/06/18 00:38:44;;;;;;;21.80;15.55;;;;;;;21.64;100.00;101255.22;5227821;28;20071;-66
2021/06/18 00:41:15;;;;;;;22.27;15.27;;;;;;;21.52;100.00;101259.78;5243175;28;20028;-67
2021/06/18 00:43:45;;;;;;;26.75;16.05;;;;;;;21.46;100.00;101259.63;5230141;28;20535;-66
2021/06/18 00:46:16;;;;;;;27.30;16.10;;;;;;;21.37;100.00;101266.44;5244018;28;20020;-66
2021/06/18 00:48:47;;;;;;;27.75;16.83;;;;;;;21.31;100.00;101275.53;5243260;28;20012;-66
2021/06/18 00:51:19;;;;;;;26.10;18.23;;;;;;;21.28;100.00;101288.78;5238288;28;20021;-67
2021/06/18 00:53:50;;;;;;;26.88;18.38;;;;;;;21.23;100.00;101296.81;5235707;28;20496;-66
2021/06/18 00:56:21;;;;;;;29.48;18.80;;;;;;;21.13;100.00;101300.88;5238114;28;20028;-67
2021/06/18 00:58:52;;;;;;;31.00;19.80;;;;;;;21.06;100.00;101307.47;5243600;28;20100;-68
2021/06/18 01:01:22;;;;;;;25.60;17.17;;;;;;;20.98;100.00;101292.22;5232989;28;20103;-69
2021/06/18 01:03:53;;;;;;;30.45;19.15;;;;;;;21.02;100.00;101281.69;5243375;28;20074;-68
2021/06/18 01:06:35;;;;;;;26.25;18.38;;;;;;;20.89;100.00;101302.59;5238328;28;20025;-68
2021/06/18 01:09:14;;;;;;;33.67;21.67;;;;;;;20.75;100.00;101317.38;5222234;28;20099;-68
2021/06/18 01:11:58;;;;;;;32.10;22.45;;;;;;;20.62;100.00;101336.56;5243472;28;20112;-68
2021/06/18 01:14:48;;;;;;;37.45;23.05;;;;;;;20.52;100.00;101334.31;5243626;28;20024;-68
2021/06/18 01:17:50;;;;;;;40.50;22.40;;;;;;;20.47;100.00;101297.88;5243186;28;20030;-68
2021/06/18 01:20:58;;;;;;;29.48;22.10;;;;;;;20.53;100.00;101297.84;5229867;28;20060;-69
2021/06/18 01:23:29;;;;;;;32.22;21.60;;;;;;;20.52;100.00;101266.19;5224781;28;20424;-69
2021/06/18 01:26:22;;;;;;;33.38;23.48;;;;;;;20.52;100.00;101276.25;5236824;28;20039;-69
2021/06/18 01:29:00;;;;;;;35.17;22.92;;;;;;;20.38;100.00;101276.34;5170913;28;20071;-69
2021/06/18 01:31:37;;;;;;;38.17;25.25;;;;;;;20.25;100.00;101284.59;5242804;28;20047;-69
2021/06/18 01:34:15;;;;;;;38.78;23.38;;;;;;;20.20;100.00;101278.16;5236155;28;20051;-67
2021/06/18 01:36:50;;;;;;;36.92;23.92;;;;;;;20.27;100.00;101260.69;5229415;28;20025;-69
2021/06/18 01:39:23;;;;;;;35.65;24.00;;;;;;;20.30;100.00;101253.97;5230979;28;20085;-69
2021/06/18 01:41:56;;;;;;;32.78;22.55;;;;;;;20.30;100.00;101262.16;5242887;28;20032;-68
2021/06/18 01:44:28;;;;;;;31.45;21.30;;;;;;;20.20;100.00;101276.25;5242878;28;20025;-68
2021/06/18 01:47:00;;;;;;;35.03;20.40;;;;;;;20.15;100.00;101263.28;5242685;28;20025;-68
2021/06/18 01:49:34;;;;;;;32.67;23.38;;;;;;;20.12;100.00;101268.31;5241550;28;20453;-68
2021/06/18 01:52:07;;;;;;;33.03;22.27;;;;;;;20.06;100.00;101291.81;5238961;28;20028;-67
2021/06/18 01:54:40;;;;;;;33.65;23.92;;;;;;;20.01;100.00;101294.38;5240952;28;20460;-68
2021/06/18 01:57:12;;;;;;;36.88;23.90;;;;;;;20.04;100.00;101315.72;5222000;28;20405;-68
2021/06/18 01:59:49;;;;;;;29.52;20.83;;;;;;;20.05;100.00;101320.13;5234095;28;20390;-68
2021/06/18 02:02:22;;;;;;;35.53;21.55;;;;;;;20.07;100.00;101289.94;5222205;28;20021;-68
2021/06/18 02:04:55;;;;;;;28.08;19.58;;;;;;;20.18;100.00;101265.59;5228262;28;20064;-67
2021/06/18 02:07:28;;;;;;;33.67;20.73;;;;;;;20.09;100.00;101294.13;5242277;28;20031;-67
2021/06/18 02:10:11;;;;;;;32.60;22.05;;;;;;;19.96;100.00;101293.34;5241716;28;20099;-67
2021/06/18 02:12:55;;;;;;;34.55;21.52;;;;;;;19.87;100.00;101279.97;5236858;28;20104;-67
2021/06/18 02:15:28;;;;;;;32.13;20.27;;;;;;;19.87;100.00;101258.19;5234806;28;20103;-67
2021/06/18 02:17:59;;;;;;;33.15;22.88;;;;;;;19.86;100.00;101275.59;5241923;28;20016;-68
2021/06/18 02:20:31;;;;;;;32.30;21.77;;;;;;;19.75;100.00;101281.72;5228138;28;20483;-67
2021/06/18 02:23:02;;;;;;;35.97;21.90;;;;;;;19.62;100.00;101312.53;5241466;28;20028;-68
2021/06/18 02:25:34;;;;;;;35.30;23.92;;;;;;;19.58;100.00;101363.00;5226029;28;20020;-68
2021/06/18 02:28:06;;;;;;;39.75;25.95;;;;;;;19.54;100.00;101404.47;5230014;28;20017;-67
2021/06/18 02:30:36;;;;;;;51.30;26.90;;;;;;;19.45;100.00;101401.13;5219769;28;20017;-68
2021/06/18 02:33:11;;;;;;;44.80;27.77;;;;;;;19.39;100.00;101389.19;5240667;28;20012;-67
2021/06/18 02:35:44;;;;;;;45.63;27.70;;;;;;;19.35;100.00;101379.78;5241376;28;20029;-68
2021/06/18 02:38:15;;;;;;;47.55;30.17;;;;;;;19.44;100.00;101393.16;5222686;28;20029;-68
2021/06/18 02:40:46;;;;;;;48.17;30.30;;;;;;;19.43;100.00;101386.91;5241207;28;20047;-68
2021/06/18 02:43:17;;;;;;;51.00;31.52;;;;;;;19.40;100.00;101368.25;5241649;28;20028;-68
2021/06/18 02:45:47;;;;;;;52.78;32.50;;;;;;;19.46;100.00;101331.19;5223299;28;20527;-67
2021/06/18 02:48:39;;;;;;;43.63;29.55;;;;;;;19.39;100.00;101315.72;5238327;28;20021;-68
2021/06/18 02:51:19;;;;;;;45.30;29.40;;;;;;;19.44;100.00;101322.44;5229744;28;20096;-66
2021/06/18 02:53:59;;;;;;;52.13;34.95;;;;;;;19.38;100.00;101330.41;5229479;28;20113;-66
2021/06/18 02:56:57;;;;;;;55.40;35.60;;;;;;;19.28;100.00;101316.41;5241424;28;20634;-67
2021/06/18 02:59:32;;;;;;;56.70;35.30;;;;;;;19.20;100.00;101324.78;5239246;28;20072;-68
2021/06/18 03:02:04;;;;;;;58.35;36.95;;;;;;;19.15;100.00;101310.97;5230015;28;20095;-68
2021/06/18 03:04:39;;;;;;;57.90;39.00;;;;;;;19.12;100.00;101324.97;5240773;28;20041;-68
2021/06/18 03:07:16;;;;;;;67.03;39.97;;;;;;;19.06;100.00;101323.09;5241069;28;20031;-66
2021/06/18 03:09:53;;;;;;;69.43;43.17;;;;;;;19.05;100.00;101307.84;5240663;28;20043;-68
2021/06/18 03:12:25;;;;;;;72.68;44.63;;;;;;;19.09;100.00;101290.91;5227967;28;20418;-66
2021/06/18 03:15:02;;;;;;;76.43;46.03;;;;;;;19.10;100.00;101287.13;5240847;28;20021;-66
2021/06/18 03:17:36;;;;;;;81.72;47.40;;;;;;;19.03;100.00;101296.34;5241174;28;20016;-67
2021/06/18 03:20:14;;;;;;;81.45;47.60;;;;;;;19.08;100.00;101296.56;5228760;28;20025;-68
2021/06/18 03:22:49;;;;;;;91.35;52.28;;;;;;;19.02;100.00;101291.94;5233543;28;20052;-68
2021/06/18 03:25:21;;;;;;;78.80;48.47;;;;;;;19.05;100.00;101286.94;5219444;28;20030;-67
2021/06/18 03:27:53;;;;;;;77.22;47.63;;;;;;;19.12;100.00;101285.00;5220474;28;20025;-67
2021/06/18 03:30:25;;;;;;;79.95;49.05;;;;;;;19.13;100.00;101288.59;5235614;28;20107;-66
2021/06/18 03:32:57;;;;;;;81.38;48.05;;;;;;;19.07;100.00;101297.59;5231260;28;20051;-68
2021/06/18 03:35:29;;;;;;;85.53;49.05;;;;;;;19.09;100.00;101299.06;5237715;28;20445;-68
2021/06/18 03:38:01;;;;;;;84.90;49.63;;;;;;;19.03;100.00;101296.34;5221615;28;20036;-68
2021/06/18 03:40:34;;;;;;;85.25;50.42;;;;;;;19.02;100.00;101300.94;5237288;28;20064;-68
2021/06/18 03:43:05;;;;;;;77.85;48.88;;;;;;;19.06;100.00;101307.63;5240133;28;20572;-66
2021/06/18 03:45:42;;;;;;;78.15;47.47;;;;;;;19.06;100.00;101299.47;5233318;28;20059;-67
2021/06/18 03:48:15;;;;;;;74.65;46.53;;;;;;;19.08;100.00;101286.50;5236985;28;20024;-66
2021/06/18 03:50:45;;;;;;;72.38;45.38;;;;;;;19.06;100.00;101288.59;5234178;28;20028;-67
2021/06/18 03:53:17;;;;;;;74.45;46.00;;;;;;;19.06;100.00;101290.47;5239298;28;20400;-67
2021/06/18 03:55:47;;;;;;;63.38;43.00;;;;;;;19.05;100.00;101281.50;5233260;28;20104;-68
2021/06/18 03:58:21;;;;;;;65.30;42.53;;;;;;;19.06;100.00;101279.59;5240575;28;20104;-67
2021/06/18 04:00:54;;;;;;;71.43;42.50;;;;;;;19.02;100.00;101275.63;5242486;28;20020;-67
2021/06/18 04:03:26;;;;;;;69.45;43.50;;;;;;;19.02;100.00;101265.59;5243586;28;20473;-67
2021/06/18 04:06:01;;;;;;;65.68;42.05;;;;;;;19.02;100.00;101257.44;5243160;28;20029;-68
2021/06/18 04:08:35;;;;;;;65.20;40.53;;;;;;;19.02;100.00;101260.16;5243416;28;20012;-67
2021/06/18 04:11:08;;;;;;;63.00;39.78;;;;;;;19.05;100.00;101272.50;5242444;28;20427;-67
2021/06/18 04:13:38;;;;;;;64.43;39.05;;;;;;;19.07;100.00;101273.09;5243406;28;20094;-67
2021/06/18 04:16:11;;;;;;;65.00;39.92;;;;;;;19.08;100.00;101282.97;5243410;28;20024;-67
2021/06/18 04:18:44;;;;;;;60.17;38.45;;;;;;;19.05;100.00;101264.34;5243023;28;20024;-67
2021/06/18 04:21:18;;;;;;;58.45;36.63;;;;;;;19.08;100.00;101263.94;5228913;28;20032;-67
2021/06/18 04:23:49;;;;;;;58.88;37.13;;;;;;;19.10;100.00;101265.38;5229152;28;20029;-67
2021/06/18 04:26:20;;;;;;;58.55;36.10;;;;;;;19.11;100.00;101250.72;5233940;28;20501;-68
2021/06/18 04:28:51;;;;;;;56.67;36.22;;;;;;;19.14;100.00;101260.34;5225252;28;20025;-67
2021/06/18 04:31:21;;;;;;;55.25;36.90;;;;;;;19.12;100.00;101259.72;5232056;28;20025;-67
2021/06/18 04:33:52;;;;;;;54.47;34.75;;;;;;;19.14;100.00;101253.03;5235580;28;20047;-67
2021/06/18 04:36:23;;;;;;;58.33;38.05;;;;;;;19.13;100.00;101242.38;5229022;28;20028;-68
2021/06/18 04:38:53;;;;;;;59.08;37.63;;;;;;;19.13;100.00;101234.22;5225685;28;119178;-67
2021/06/18 04:41:24;;;;;;;57.30;36.58;;;;;;;19.13;100.00;101243.19;5230886;28;20125;-67
2021/06/18 04:43:55;;;;;;;60.35;38.58;;;;;;;19.09;100.00;101244.66;5243349;28;20036;-68
2021/06/18 04:46:25;;;;;;;65.82;39.25;;;;;;;19.15;100.00;101242.97;5243928;28;20020;-66
2021/06/18 04:48:56;;;;;;;62.70;39.75;;;;;;;19.15;100.00;101241.09;5243405;28;20025;-67
2021/06/18 04:51:27;;;;;;;68.18;43.25;;;;;;;19.14;100.00;101227.72;5239191;28;20438;-67
2021/06/18 04:53:57;;;;;;;66.18;43.40;;;;;;;19.16;100.00;101239.19;5244068;28;20769;-67
2021/06/18 04:56:28;;;;;;;66.13;42.47;;;;;;;19.17;100.00;101248.19;5243808;28;20078;-67
2021/06/18 04:58:59;;;;;;;64.43;41.63;;;;;;;19.13;100.00;101245.91;5242846;28;20048;-67
2021/06/18 05:01:29;;;;;;;64.97;39.83;;;;;;;19.21;100.00;101253.00;5242750;28;20028;-68
2021/06/18 05:04:00;;;;;;;64.90;41.70;;;;;;;19.17;100.00;101262.63;5243748;28;20081;-66
2021/06/18 05:06:30;;;;;;;68.53;42.75;;;;;;;19.13;100.00;101264.97;5243558;28;20016;-67
2021/06/18 05:09:01;;;;;;;72.03;43.67;;;;;;;19.19;100.00;101263.28;5243277;28;20028;-67
2021/06/18 05:11:32;;;;;;;64.13;40.83;;;;;;;19.21;100.00;101277.47;5222485;28;20086;-67
2021/06/18 05:14:02;;;;;;;62.83;40.35;;;;;;;19.22;100.00;101273.69;5222370;28;20402;-65
2021/06/18 05:16:33;;;;;;;60.65;39.33;;;;;;;19.27;100.00;101268.47;5231350;28;20021;-67
2021/06/18 05:19:03;;;;;;;57.53;39.78;;;;;;;19.25;100.00;101264.28;5242681;28;20032;-67
2021/06/18 05:21:34;;;;;;;62.80;40.00;;;;;;;19.29;100.00;101279.16;5243655;28;20089;-67
2021/06/18 05:24:05;;;;;;;61.90;39.20;;;;;;;19.29;100.00;101270.97;5242483;28;20059;-66
2021/06/18 05:26:36;;;;;;;64.72;42.75;;;;;;;19.30;100.00;101268.03;5231794;28;20025;-67
2021/06/18 05:29:07;;;;;;;67.85;43.42;;;;;;;19.29;100.00;101263.66;5221478;28;20032;-66
2021/06/18 05:31:37;;;;;;;66.97;41.47;;;;;;;19.31;100.00;101264.28;5234837;28;20056;-68
2021/06/18 05:34:08;;;;;;;62.75;42.67;;;;;;;19.34;100.00;101273.91;5242922;28;20136;-67
2021/06/18 05:36:39;;;;;;;63.95;41.60;;;;;;;19.39;100.00;101268.66;5227849;28;20049;-66
2021/06/18 05:39:11;;;;;;;63.95;41.10;;;;;;;19.39;100.00;101272.22;5229566;28;20457;-68
2021/06/18 05:41:42;;;;;;;64.88;41.67;;;;;;;19.41;100.00;101259.22;5242773;28;20024;-67
2021/06/18 05:44:13;;;;;;;64.45;41.83;;;;;;;19.46;100.00;101272.19;5242957;28;20107;-67
2021/06/18 05:46:43;;;;;;;63.15;41.85;;;;;;;19.45;100.00;101269.69;5229399;28;20565;-67
2021/06/18 05:49:14;;;;;;;63.00;40.80;;;;;;;19.55;100.00;101275.50;5241653;28;20150;-68
2021/06/18 05:51:44;;;;;;;65.40;39.25;;;;;;;19.50;100.00;101269.88;5225096;28;20051;-68
2021/06/18 05:54:15;;;;;;;58.00;39.13;;;;;;;19.52;100.00;101276.75;5233652;28;20477;-68
2021/06/18 05:56:45;;;;;;;62.75;40.70;;;;;;;19.57;100.00;101281.56;5242651;28;20051;-67
2021/06/18 05:59:16;;;;;;;60.83;40.28;;;;;;;19.59;100.00;101293.94;5242006;28;20024;-68
2021/06/18 06:01:46;;;;;;;58.92;38.40;;;;;;;19.64;100.00;101285.13;5241509;28;20055;-68
2021/06/18 06:04:17;;;;;;;64.53;40.95;;;;;;;19.61;100.00;101285.56;5242351;28;20032;-68
2021/06/18 06:06:47;;;;;;;73.57;45.33;;;;;;;19.60;100.00;101283.88;5242692;28;20483;-66
2021/06/18 06:09:17;;;;;;;68.88;43.10;;;;;;;19.64;100.00;101279.69;5241042;28;20043;-68
2021/06/18 06:11:48;;;;;;;63.60;40.88;;;;;;;19.67;100.00;101269.19;5242345;28;20030;-68
2021/06/18 06:14:20;;;;;;;57.78;38.90;;;;;;;19.66;100.00;101266.69;5241400;28;20047;-68
2021/06/18 06:16:50;;;;;;;61.40;40.10;;;;;;;19.69;100.00;101269.00;5242619;28;20020;-68
2021/06/18 06:19:21;;;;;;;66.18;39.75;;;;;;;19.67;100.00;101265.63;5241195;28;20036;-68
2021/06/18 06:21:51;;;;;;;64.00;40.67;;;;;;;19.65;100.00;101270.47;5242404;28;20603;-68
2021/06/18 06:24:22;;;;;;;64.60;41.70;;;;;;;19.64;100.00;101276.97;5241773;28;20052;-66
2021/06/18 06:26:52;;;;;;;59.97;37.65;;;;;;;19.67;100.00;101257.47;5228050;28;20557;-68
2021/06/18 06:29:23;;;;;;;57.97;37.28;;;;;;;19.69;100.00;101247.22;5212426;28;20372;-67
2021/06/18 06:31:53;;;;;;;61.85;39.72;;;;;;;19.65;100.00;101248.69;5212537;28;20028;-68
2021/06/18 06:34:24;;;;;;;62.17;39.30;;;;;;;19.71;100.00;101245.09;5227874;28;20028;-68
2021/06/18 06:36:56;;;;;;;60.13;39.90;;;;;;;19.70;100.00;101243.44;5231350;28;20029;-66
2021/06/18 06:39:26;;;;;;;58.63;34.95;;;;;;;19.75;100.00;101237.34;5228682;28;20055;-68
2021/06/18 06:41:57;;;;;;;49.85;34.72;;;;;;;19.90;100.00;101238.72;5239346;28;20021;-66
2021/06/18 06:44:28;;;;;;;49.20;33.45;;;;;;;19.98;100.00;101234.91;5239612;28;20025;-68
2021/06/18 06:46:58;;;;;;;51.38;31.83;;;;;;;20.07;100.00;101243.63;5239210;28;20033;-68
2021/06/18 06:49:29;;;;;;;43.97;30.40;;;;;;;20.15;100.00;101251.56;5238416;28;20465;-67
2021/06/18 06:52:00;;;;;;;44.47;30.60;;;;;;;20.25;100.00;101242.91;5235304;28;20031;-68
2021/06/18 06:54:30;;;;;;;44.80;31.25;;;;;;;20.38;100.00;101232.75;5239203;28;20024;-67
2021/06/18 06:57:01;;;;;;;37.03;24.35;;;;;;;20.54;100.00;101230.56;5221657;28;20024;-66
2021/06/18 06:59:31;;;;;;;39.72;26.33;;;;;;;20.63;100.00;101238.22;5238625;28;20016;-69
2021/06/18 07:02:02;;;;;;;32.42;24.83;;;;;;;20.79;100.00;101253.19;5238367;28;20028;-68
2021/06/18 07:04:32;;;;;;;30.92;21.60;;;;;;;20.90;100.00;101252.44;5239040;28;20480;-67
2021/06/18 07:07:03;;;;;;;23.50;17.95;;;;;;;21.16;100.00;101254.06;5228870;28;20105;-68
2021/06/18 07:09:37;;;;;;;23.92;17.90;;;;;;;21.45;100.00;101248.94;5231652;28;20017;-68
2021/06/18 07:12:09;;;;;;;26.67;17.73;;;;;;;21.76;100.00;101245.19;5230831;28;20145;-69
2021/06/18 07:14:40;;;;;;;24.25;16.65;;;;;;;22.07;100.00;101240.53;5238009;28;20660;-69
2021/06/18 07:17:11;;;;;;;23.90;16.48;;;;;;;22.32;100.00;101238.50;5225601;28;20025;-68
2021/06/18 07:19:41;;;;;;;25.33;16.15;;;;;;;22.54;100.00;101247.00;5218132;28;20056;-67
2021/06/18 07:22:12;;;;;;;23.30;16.25;;;;;;;22.69;100.00;101235.56;5233032;28;20112;-68
2021/06/18 07:24:42;;;;;;;22.42;16.33;;;;;;;22.87;100.00;101238.19;5238826;28;20073;-69
2021/06/18 07:27:14;;;;;;;20.33;14.73;;;;;;;23.19;100.00;101241.44;5221746;28;20040;-68
2021/06/18 07:29:44;;;;;;;20.83;14.85;;;;;;;23.23;100.00;101239.03;5228133;28;20020;-69
2021/06/18 07:32:15;;;;;;;17.60;13.35;;;;;;;23.28;100.00;101233.66;5238739;28;20024;-69
2021/06/18 07:34:47;;;;;;;17.45;13.60;;;;;;;23.52;100.00;101229.78;5227576;28;20024;-66
2021/06/18 07:37:18;;;;;;;21.13;13.50;;;;;;;23.50;100.00;101233.88;5224669;28;20024;-69
2021/06/18 07:39:49;;;;;;;22.65;13.93;;;;;;;23.54;100.00;101237.75;5230559;28;20493;-69
2021/06/18 07:42:19;;;;;;;17.92;12.80;;;;;;;23.82;100.00;101233.41;5232126;28;20434;-67
2021/06/18 07:44:50;;;;;;;17.77;12.82;;;;;;;23.82;100.00;101236.16;5232257;28;20025;-69
2021/06/18 07:47:23;;;;;;;17.17;12.02;;;;;;;24.02;100.00;101218.19;5239166;28;20040;-68
2021/06/18 07:49:53;;;;;;;18.52;11.88;;;;;;;24.07;100.00;101211.97;5237469;28;20047;-67
2021/06/18 07:52:24;;;;;;;19.63;11.63;;;;;;;23.93;100.00;101216.06;5234735;28;20443;-66
2021/06/18 07:54:58;;;;;;;14.40;11.15;;;;;;;24.01;100.00;101213.78;5234883;28;20035;-68
2021/06/18 07:57:28;;;;;;;17.20;11.70;;;;;;;24.08;100.00;101212.78;5229799;28;20032;-69
2021/06/18 07:59:59;;;;;;;14.60;10.98;;;;;;;24.16;100.00;101226.94;5238472;28;20029;-68
2021/06/18 08:02:29;;;;;;;16.85;12.10;;;;;;;24.15;100.00;101222.53;5237924;28;20396;-67
2021/06/18 08:05:00;;;;;;;18.00;11.20;;;;;;;24.39;100.00;101225.97;5224560;28;20111;-67
2021/06/18 08:07:30;;;;;;;19.75;11.93;;;;;;;24.25;100.00;101214.47;5238874;28;20103;-68
2021/06/18 08:10:01;;;;;;;13.27;11.43;;;;;;;24.46;100.00;101223.91;5238155;28;20028;-68
2021/06/18 08:12:31;;;;;;;19.92;12.02;;;;;;;24.63;100.00;101220.31;5238571;28;20063;-69
2021/06/18 08:15:03;;;;;;;15.75;11.18;;;;;;;25.00;100.00;101218.69;5237274;28;20028;-67
2021/06/18 08:17:34;;;;;;;16.45;12.55;;;;;;;25.19;100.00;101212.91;5238402;28;20119;-70
2021/06/18 08:20:05;;;;;;;18.63;12.63;;;;;;;25.20;100.00;101226.41;5227902;28;20092;-69
2021/06/18 08:22:36;;;;;;;17.40;12.23;;;;;;;25.28;100.00;101220.44;5235567;28;20048;-68
2021/06/18 08:25:07;;;;;;;20.38;12.63;;;;;;;25.44;100.00;101224.22;5238062;28;20457;-69
2021/06/18 08:27:37;;;;;;;18.13;12.60;;;;;;;25.50;100.00;101225.97;5217743;28;20098;-69
2021/06/18 08:30:08;;;;;;;15.45;11.93;;;;;;;25.30;100.00;101217.44;5230825;28;20469;-69
2021/06/18 08:32:39;;;;;;;20.00;13.23;;;;;;;25.34;100.00;101218.59;5240075;28;20089;-69
2021/06/18 08:35:09;;;;;;;20.80;14.63;;;;;;;25.41;100.00;101218.41;5241661;28;20025;-69
2021/06/18 08:37:40;;;;;;;19.92;15.10;;;;;;;25.41;100.00;101216.50;5228273;28;20055;-68
2021/06/18 08:40:11;;;;;;;19.42;15.32;;;;;;;25.50;100.00;101217.72;5222897;28;20111;-67
2021/06/18 08:42:42;;;;;;;19.98;16.48;;;;;;;25.68;100.00;101212.94;5242119;28;20024;-68
2021/06/18 08:45:12;;;;;;;20.92;15.95;;;;;;;25.92;100.00;101214.34;5209960;28;20027;-67
2021/06/18 08:47:43;;;;;;;22.20;16.80;;;;;;;26.07;100.00;101216.41;5241981;28;20021;-67
2021/06/18 08:50:16;;;;;;;22.27;16.10;;;;;;;26.41;100.00;101213.38;5227700;28;20502;-66
2021/06/18 08:52:47;;;;;;;23.70;17.35;;;;;;;26.68;100.00;101202.34;5237576;28;20523;-69
2021/06/18 08:55:20;;;;;;;24.52;17.75;;;;;;;26.58;100.00;101195.69;5241615;28;20374;-66
2021/06/18 08:57:52;;;;;;;23.88;16.00;;;;;;;26.66;100.00;101194.38;5241892;28;20024;-66
2021/06/18 09:00:24;;;;;;;24.55;16.83;;;;;;;26.70;100.00;101183.66;5241376;28;20021;-66
2021/06/18 09:02:56;;;;;;;19.77;15.95;;;;;;;26.67;100.00;101186.94;5241420;28;20587;-67
2021/06/18 09:05:27;;;;;;;23.95;17.60;;;;;;;26.42;100.00;101187.56;5241345;28;20025;-66
2021/06/18 09:08:00;;;;;;;23.42;16.52;;;;;;;26.90;100.00;101175.50;5241570;28;20077;-66
2021/06/18 09:10:39;;;;;;;22.27;16.08;;;;;;;27.17;100.00;101171.81;5241927;28;20070;-66
2021/06/18 09:13:12;;;;;;;24.75;15.98;;;;;;;27.08;100.00;101169.56;5241260;28;20552;-67
2021/06/18 09:15:43;;;;;;;20.48;14.02;;;;;;;27.34;100.00;101173.25;5240949;28;20036;-65
2021/06/18 09:18:31;;;;;;;22.77;15.07;;;;;;;27.42;100.00;101163.66;5241675;28;20048;-66
2021/06/18 09:21:02;;;;;;;20.58;14.20;;;;;;;27.41;100.00;101167.50;5241081;28;20032;-66
2021/06/18 09:23:38;;;;;;;19.33;14.07;;;;;;;27.49;100.00;101168.91;5241577;28;20499;-66
2021/06/18 09:26:22;;;;;;;19.42;15.10;;;;;;;27.65;100.00;101172.50;5220710;28;20371;-66
2021/06/18 09:29:06;;;;;;;26.55;15.70;;;;;;;27.63;100.00;101159.00;5223986;28;20103;-66
2021/06/18 09:31:41;;;;;;;20.98;16.38;;;;;;;27.70;100.00;101158.75;5229240;28;20033;-67
2021/06/18 09:34:12;;;;;;;;;;;;;;;27.78;100.00;101172.03;5240613;28;20020;-66
2021/06/18 09:36:42;;;;;;;28.27;17.42;;;;;;;27.51;100.00;101178.56;5234092;28;20363;-66
2021/06/18 09:39:15;;;;;;;25.50;17.27;;;;;;;27.71;100.00;101179.72;5228446;28;20489;-66
2021/06/18 09:41:50;;;;;;;21.13;16.58;;;;;;;28.04;100.00;101184.72;5240988;28;20024;-66
2021/06/18 09:44:23;;;;;;;32.35;17.83;;;;;;;28.25;100.00;101176.47;5239442;28;20020;-66
2021/06/18 09:46:58;;;;;;;22.58;16.85;;;;;;;28.74;100.00;101181.41;5241328;28;20039;-68
2021/06/18 09:49:29;;;;;;;20.98;14.05;;;;;;;28.76;100.00;101166.19;5241110;28;20020;-65
2021/06/18 09:52:07;;;;;;;22.65;15.00;;;;;;;28.79;100.00;101179.44;5236888;28;20424;-65
2021/06/18 09:54:45;;;;;;;25.83;14.88;;;;;;;28.95;100.00;101171.97;5238615;28;20016;-66
2021/06/18 09:57:21;;;;;;;19.45;14.10;;;;;;;28.75;100.00;101174.78;5230134;28;20028;-66
2021/06/18 10:00:00;;;;;;;17.48;13.77;;;;;;;28.82;100.00;101169.78;5240090;28;20033;-65
2021/06/18 10:02:38;;;;;;;18.60;14.15;;;;;;;28.84;100.00;101157.34;5229441;28;20040;-66
2021/06/18 10:05:14;;;;;;;26.83;17.70;;;;;;;28.38;100.00;101154.69;5216752;28;20031;-66
2021/06/18 10:07:46;;;;;;;20.10;14.07;;;;;;;28.58;100.00;101159.34;5221958;28;20419;-66
2021/06/18 10:10:19;;;;;;;18.77;13.98;;;;;;;28.91;100.00;101162.56;5224417;28;20029;-66
2021/06/18 10:12:50;;;;;;;17.77;13.73;;;;;;;28.89;100.00;101165.63;5220818;28;20071;-67
2021/06/18 10:15:23;;;;;;;17.85;11.38;;;;;;;29.02;100.00;101158.72;5231883;28;20469;-66
2021/06/18 10:17:55;;;;;;;19.30;12.10;;;;;;;29.40;100.00;101153.53;5224092;28;20039;-65
2021/06/18 10:20:28;;;;;;;17.02;11.85;;;;;;;29.66;100.00;101157.84;5224753;28;20112;-66
2021/06/18 10:23:12;;;;;;;16.42;11.35;;;;;;;29.86;100.00;101156.03;5232841;28;20110;-66
2021/06/18 10:25:44;;;;;;;16.73;11.25;;;;;;;30.04;100.00;101152.59;5232594;28;20025;-67
2021/06/18 10:28:21;;;;;;;16.90;9.00;;;;;;;29.84;100.00;101145.28;5230209;28;20021;-67
2021/06/18 10:30:54;;;;;;;22.23;10.55;;;;;;;29.81;100.00;101136.72;5236925;28;20058;-66
2021/06/18 10:33:27;;;;;;;16.52;9.82;;;;;;;29.81;100.00;101139.50;5238581;28;20031;-65
2021/06/18 10:36:08;;;;;;;11.52;8.48;;;;;;;29.92;100.00;101139.13;5237235;28;20110;-67
2021/06/18 10:38:43;;;;;;;13.27;8.95;;;;;;;30.36;100.00;101132.66;5217948;28;20021;-66
2021/06/18 10:41:16;;;;;;;;;;;;;;;30.62;100.00;101138.75;5201737;28;20524;-65
2021/06/18 10:43:51;;;;;;;11.25;8.10;;;;;;;30.49;100.00;101133.94;5223613;28;19909;-66
2021/06/18 10:46:25;;;;;;;13.60;7.22;;;;;;;30.10;100.00;101128.47;5224031;28;20020;-67
2021/06/18 10:49:08;;;;;;;16.45;7.68;;;;;;;30.07;100.00;101123.50;5218736;28;20067;-66
2021/06/18 10:51:49;;;;;;;16.40;7.35;;;;;;;30.48;100.00;101123.16;5227338;28;20028;-70
2021/06/18 10:54:44;;;;;;;10.25;7.63;;;;;;;30.62;100.00;101118.56;5230525;28;20501;-66
2021/06/18 10:57:21;;;;;;;19.37;8.20;;;;;;;30.91;100.00;101115.75;5219143;28;20024;-66
2021/06/18 11:00:18;;;;;;;10.73;6.43;;;;;;;30.77;97.66;101120.34;5236479;28;20457;-65
2021/06/18 11:02:48;;;;;;;17.10;7.60;;;;;;;30.46;100.00;101119.84;5236938;28;20025;-67
2021/06/18 11:05:24;;;;;;;17.23;7.93;;;;;;;30.67;100.00;101112.97;5229595;28;20484;-66
2021/06/18 11:08:21;;;;;;;17.52;7.95;;;;;;;30.76;100.00;101110.41;5231533;28;20028;-67
2021/06/18 11:10:57;;;;;;;18.50;6.57;;;;;;;31.04;100.00;101105.91;5221540;28;20477;-66
2021/06/18 11:13:28;;;;;;;11.98;6.45;;;;;;;31.07;100.00;101103.34;5227797;28;20023;-67
2021/06/18 11:15:58;;;;;;;9.77;6.22;;;;;;;30.95;92.52;101101.03;5238826;28;20032;-67
2021/06/18 11:18:32;;;;;;;14.50;6.65;;;;;;;31.09;97.37;101094.75;5238471;28;20032;-67
2021/06/18 11:21:06;;;;;;;11.65;6.50;;;;;;;31.69;100.00;101101.38;5238544;28;20469;-66
2021/06/18 11:23:55;;;;;;;8.98;5.65;;;;;;;31.66;100.00;101104.75;5239272;28;20021;-67
2021/06/18 11:26:26;;;;;;;11.43;5.45;;;;;;;31.35;87.67;101103.56;5237833;28;20401;-66
2021/06/18 11:28:57;;;;;;;10.50;5.18;;;;;;;31.47;89.67;101098.38;5238522;28;20066;-66